createdAt,value
2018-12-11T00:00:36.822Z,98.35
2018-12-11T00:01:36.808Z,98.07
2018-12-11T00:02:36.794Z,98.54
2018-12-11T00:03:36.782Z,98.35
2018-12-11T00:04:36.770Z,97.69
2018-12-11T00:05:36.757Z,97.6
2018-12-11T00:06:36.741Z,97.6
2018-12-11T00:07:36.734Z,97.88
2018-12-11T00:08:36.716Z,97.88
2018-12-11T00:09:36.707Z,97.12
2018-12-11T00:10:36.691Z,97.41
2018-12-11T00:11:36.708Z,97.22
2018-12-11T00:12:36.667Z,97.31
2018-12-11T00:13:36.653Z,97.41
2018-12-11T00:14:36.642Z,97.22
2018-12-11T00:15:36.639Z,97.12
2018-12-11T00:16:36.615Z,96.93
2018-12-11T00:17:36.601Z,96.64
2018-12-11T00:18:36.593Z,97.02
2018-12-11T00:19:36.575Z,97.02
2018-12-11T00:20:36.581Z,97.12
2018-12-11T00:21:36.558Z,97.12
2018-12-11T00:22:36.541Z,96.36
2018-12-11T00:23:36.523Z,96.64
2018-12-11T00:24:36.511Z,97.02
2018-12-11T00:25:36.497Z,97.22
2018-12-11T00:26:36.497Z,97.22
2018-12-11T00:27:36.473Z,96.45
2018-12-11T00:28:36.760Z,96.93
2018-12-11T00:29:36.449Z,96.55
2018-12-11T00:30:36.435Z,96.55
2018-12-11T00:31:36.425Z,96.55
2018-12-11T00:32:36.406Z,96.83
2018-12-11T00:33:36.394Z,96.74
2018-12-11T00:34:36.382Z,96.93
2018-12-11T00:35:36.368Z,96.74
2018-12-11T00:36:36.358Z,96.83
2018-12-11T00:37:36.347Z,96.74
2018-12-11T00:38:36.330Z,96.74
2018-12-11T00:39:36.367Z,96.64
2018-12-11T00:40:36.309Z,96.08
2018-12-11T00:41:36.293Z,95.98
2018-12-11T00:42:36.281Z,96.45
2018-12-11T00:43:36.278Z,96.17
2018-12-11T00:44:36.255Z,96.45
2018-12-11T00:45:36.243Z,96.36
2018-12-11T00:46:36.230Z,96.55
2018-12-11T00:47:36.219Z,96.26
2018-12-11T00:48:36.208Z,96.36
2018-12-11T00:49:36.193Z,96.45
2018-12-11T00:50:36.178Z,96.26
2018-12-11T00:51:36.171Z,96.36
2018-12-11T00:52:36.165Z,96.26
2018-12-11T00:53:36.140Z,96.45
2018-12-11T00:54:36.127Z,96.26
2018-12-11T00:55:36.112Z,96.26
2018-12-11T00:56:36.099Z,96.45
2018-12-11T00:57:36.087Z,96.45
2018-12-11T00:58:36.081Z,96.36
2018-12-11T00:59:36.063Z,96.26
2018-12-11T01:00:36.054Z,96.26
2018-12-11T01:01:36.036Z,96.55
2018-12-11T01:02:36.022Z,96.36
2018-12-11T01:03:37.089Z,96.36
2018-12-11T01:04:36.000Z,96.45
2018-12-11T01:05:35.986Z,96.45
2018-12-11T01:06:35.974Z,96.45
2018-12-11T01:07:35.960Z,96.17
2018-12-11T01:08:35.947Z,96.83
2018-12-11T01:09:35.935Z,96.17
2018-12-11T01:10:35.921Z,96.55
2018-12-11T01:11:35.908Z,96.36
2018-12-11T01:12:35.899Z,96.36
2018-12-11T01:13:35.882Z,96.26
2018-12-11T01:14:35.871Z,96.26
2018-12-11T01:15:35.857Z,96.17
2018-12-11T01:16:35.842Z,95.98
2018-12-11T01:17:35.831Z,96.26
2018-12-11T01:18:35.819Z,96.17
2018-12-11T01:19:35.804Z,96.36
2018-12-11T01:20:35.795Z,96.26
2018-12-11T01:21:35.788Z,96.36
2018-12-11T01:22:35.768Z,96.36
2018-12-11T01:23:35.754Z,96.36
2018-12-11T01:24:35.742Z,96.55
2018-12-11T01:25:35.728Z,96.36
2018-12-11T01:26:35.716Z,96.17
2018-12-11T01:27:35.703Z,96.17
2018-12-11T01:28:35.686Z,96.26
2018-12-11T01:29:35.679Z,96.45
2018-12-11T01:30:35.662Z,96.45
2018-12-11T01:31:35.650Z,96.36
2018-12-11T01:32:35.638Z,96.36
2018-12-11T01:33:35.623Z,96.36
2018-12-11T01:34:35.610Z,96.74
2018-12-11T01:35:35.600Z,96.36
2018-12-11T01:36:35.593Z,96.55
2018-12-11T01:37:35.573Z,95.98
2018-12-11T01:38:35.563Z,96.45
2018-12-11T01:39:35.549Z,96.36
2018-12-11T01:40:35.536Z,96.17
2018-12-11T01:41:35.529Z,96.83
2018-12-11T01:42:35.512Z,96.55
2018-12-11T01:43:35.497Z,96.74
2018-12-11T01:44:35.485Z,96.74
2018-12-11T01:45:35.472Z,96.64
2018-12-11T01:46:35.461Z,96.08
2018-12-11T01:47:35.445Z,95.98
2018-12-11T01:48:35.433Z,96.83
2018-12-11T01:49:35.420Z,96.36
2018-12-11T01:50:35.408Z,96.45
2018-12-11T01:51:35.402Z,96.45
2018-12-11T01:52:35.385Z,96.36
2018-12-11T01:53:35.372Z,96.36
2018-12-11T01:54:35.358Z,96.36
2018-12-11T01:55:35.346Z,96.17
2018-12-11T01:56:35.334Z,96.83
2018-12-11T01:57:35.320Z,96.74
2018-12-11T01:58:35.307Z,96.83
2018-12-11T01:59:35.293Z,96.74
2018-12-11T02:00:35.281Z,96.74
2018-12-11T02:01:35.269Z,96.64
2018-12-11T02:02:35.257Z,96.64
2018-12-11T02:03:35.245Z,96.36
2018-12-11T02:04:35.233Z,96.45
2018-12-11T02:05:35.220Z,96.36
2018-12-11T02:06:35.206Z,95.98
2018-12-11T02:07:35.192Z,96.31
2018-12-11T02:08:35.180Z,96.26
2018-12-11T02:09:35.171Z,96.26
2018-12-11T02:10:35.186Z,96.55
2018-12-11T02:11:35.141Z,96.26
2018-12-11T02:12:35.129Z,96.26
2018-12-11T02:13:35.117Z,96.36
2018-12-11T02:14:35.107Z,96.36
2018-12-11T02:15:35.091Z,96.26
2018-12-11T02:16:35.078Z,96.45
2018-12-11T02:17:35.067Z,96.26
2018-12-11T02:18:35.058Z,96.45
2018-12-11T02:19:35.042Z,96.26
2018-12-11T02:20:35.026Z,96.36
2018-12-11T02:21:35.021Z,96.45
2018-12-11T02:22:35.005Z,96.36
2018-12-11T02:23:35.060Z,96.5
2018-12-11T02:24:34.978Z,96.64
2018-12-11T02:25:34.964Z,96.26
2018-12-11T02:26:34.951Z,96.31
2018-12-11T02:27:34.941Z,96.83
2018-12-11T02:28:34.930Z,97.02
2018-12-11T02:29:34.914Z,97.02
2018-12-11T02:30:34.907Z,97.12
2018-12-11T02:31:34.895Z,97.12
2018-12-11T02:32:34.882Z,97.6
2018-12-11T02:33:35.115Z,97.31
2018-12-11T02:34:34.852Z,97.88
2018-12-11T02:35:34.839Z,97.41
2018-12-11T02:36:34.830Z,97.69
2018-12-11T02:37:34.816Z,97.5
2018-12-11T02:38:34.802Z,97.69
2018-12-11T02:39:34.788Z,97.97
2018-12-11T02:40:34.782Z,97.69
2018-12-11T02:41:34.768Z,97.69
2018-12-11T02:42:34.749Z,97.97
2018-12-11T02:43:34.745Z,98.07
2018-12-11T02:44:34.725Z,97.69
2018-12-11T02:45:34.713Z,97.78
2018-12-11T02:46:34.698Z,97.97
2018-12-11T02:47:34.685Z,97.97
2018-12-11T02:48:34.677Z,97.88
2018-12-11T02:49:34.671Z,97.88
2018-12-11T02:50:34.648Z,97.97
2018-12-11T02:51:34.637Z,97.97
2018-12-11T02:52:34.624Z,97.88
2018-12-11T02:53:34.616Z,97.88
2018-12-11T02:54:34.602Z,97.5
2018-12-11T02:55:34.588Z,97.41
2018-12-11T02:56:34.575Z,97.6
2018-12-11T02:57:34.559Z,97.69
2018-12-11T02:58:34.544Z,97.12
2018-12-11T02:59:34.539Z,97.02
2018-12-11T03:00:34.521Z,97.02
2018-12-11T03:01:34.509Z,97.02
2018-12-11T03:02:34.496Z,97.02
2018-12-11T03:03:34.483Z,97.02
2018-12-11T03:04:34.734Z,97.31
2018-12-11T03:05:34.462Z,97.12
2018-12-11T03:06:34.446Z,97.12
2018-12-11T03:07:34.432Z,97.02
2018-12-11T03:08:34.417Z,96.83
2018-12-11T03:09:34.408Z,96.74
2018-12-11T03:10:34.397Z,97.02
2018-12-11T03:11:34.379Z,97.07
2018-12-11T03:12:34.368Z,96.45
2018-12-11T03:13:34.356Z,96.69
2018-12-11T03:14:34.343Z,97.02
2018-12-11T03:15:34.334Z,97.07
2018-12-11T03:16:34.316Z,96.93
2018-12-11T03:17:34.307Z,97.27
2018-12-11T03:18:34.296Z,97.41
2018-12-11T03:19:34.281Z,97.36
2018-12-11T03:20:34.297Z,97.12
2018-12-11T03:21:34.255Z,97.31
2018-12-11T03:22:34.242Z,97.45
2018-12-11T03:23:34.236Z,97.22
2018-12-11T03:24:34.221Z,97.02
2018-12-11T03:25:34.210Z,97.07
2018-12-11T03:26:34.199Z,97.12
2018-12-11T03:27:34.177Z,97.27
2018-12-11T03:28:34.169Z,97.31
2018-12-11T03:29:34.163Z,97.31
2018-12-11T03:30:34.151Z,97.22
2018-12-11T03:31:34.136Z,97.02
2018-12-11T03:32:34.122Z,97.12
2018-12-11T03:33:34.106Z,97.07
2018-12-11T03:34:34.090Z,97.02
2018-12-11T03:35:34.077Z,97.27
2018-12-11T03:36:34.076Z,97.07
2018-12-11T03:37:34.057Z,96.55
2018-12-11T03:38:34.036Z,97.17
2018-12-11T03:39:34.027Z,96.83
2018-12-11T03:40:34.014Z,96.79
2018-12-11T03:41:34.002Z,96.93
2018-12-11T03:42:33.986Z,96.98
2018-12-11T03:43:33.975Z,96.83
2018-12-11T03:44:33.724Z,96.93
2018-12-11T03:45:33.960Z,97.07
2018-12-11T03:46:33.942Z,96.98
2018-12-11T03:47:33.927Z,96.41
2018-12-11T03:48:33.917Z,96.55
2018-12-11T03:49:33.908Z,96.31
2018-12-11T03:50:33.887Z,96.17
2018-12-11T03:51:33.875Z,96.36
2018-12-11T03:52:33.866Z,96.55
2018-12-11T03:53:33.850Z,96.31
2018-12-11T03:54:33.838Z,96.55
2018-12-11T03:55:33.824Z,96.26
2018-12-11T03:56:33.812Z,96.26
2018-12-11T03:57:33.798Z,96.45
2018-12-11T03:58:33.788Z,96.5
2018-12-11T03:59:33.773Z,96.41
2018-12-11T04:00:33.762Z,96.26
2018-12-11T04:01:33.747Z,96.36
2018-12-11T04:02:33.744Z,96.45
2018-12-11T04:03:33.727Z,96.45
2018-12-11T04:04:33.709Z,96.26
2018-12-11T04:05:33.695Z,96.55
2018-12-11T04:06:33.685Z,96.55
2018-12-11T04:07:33.677Z,96.5
2018-12-11T04:08:33.663Z,96.36
2018-12-11T04:09:33.654Z,96.08
2018-12-11T04:10:33.631Z,96.31
2018-12-11T04:11:33.622Z,96.08
2018-12-11T04:12:33.610Z,96.93
2018-12-11T04:13:33.593Z,96.98
2018-12-11T04:14:33.582Z,96.83
2018-12-11T04:15:33.570Z,96.5
2018-12-11T04:16:33.557Z,96.36
2018-12-11T04:17:33.565Z,96.93
2018-12-11T04:18:33.538Z,96.83
2018-12-11T04:19:33.518Z,96.64
2018-12-11T04:20:33.532Z,96.55
2018-12-11T04:21:33.493Z,97.02
2018-12-11T04:22:33.488Z,96.93
2018-12-11T04:23:33.471Z,97.02
2018-12-11T04:24:33.458Z,96.93
2018-12-11T04:25:33.443Z,97.6
2018-12-11T04:26:33.433Z,97.6
2018-12-11T04:27:33.416Z,98.07
2018-12-11T04:28:33.408Z,97.88
2018-12-11T04:29:33.394Z,97.69
2018-12-11T04:30:33.381Z,97.6
2018-12-11T04:31:33.368Z,97.69
2018-12-11T04:32:33.354Z,97.97
2018-12-11T04:33:33.345Z,97.88
2018-12-11T04:34:33.327Z,97.88
2018-12-11T04:35:33.319Z,98.45
2018-12-11T04:36:33.308Z,98.64
2018-12-11T04:37:33.298Z,98.07
2018-12-11T04:38:33.279Z,98.64
2018-12-11T04:39:36.355Z,98.73
2018-12-11T04:40:33.256Z,99.02
2018-12-11T04:41:33.239Z,98.83
2018-12-11T04:42:33.226Z,99.11
2018-12-11T04:43:33.219Z,99.99
2018-12-11T04:44:33.202Z,99.99
2018-12-11T04:45:33.190Z,99.99
2018-12-11T04:46:33.175Z,99.99
2018-12-11T04:47:33.162Z,99.99
2018-12-11T04:48:33.149Z,99.99
2018-12-11T04:49:33.138Z,99.99
2018-12-11T04:50:33.130Z,99.99
2018-12-11T04:51:33.119Z,99.99
2018-12-11T04:52:33.099Z,99.99
2018-12-11T04:53:33.085Z,99.99
2018-12-11T04:54:33.074Z,99.99
2018-12-11T04:55:33.059Z,99.99
2018-12-11T04:56:33.048Z,99.99
2018-12-11T04:57:33.034Z,99.99
2018-12-11T04:58:33.020Z,99.99
2018-12-11T04:59:33.018Z,99.99
2018-12-11T05:00:32.995Z,99.99
2018-12-11T05:01:32.983Z,99.99
2018-12-11T05:02:32.978Z,99.99
2018-12-11T05:03:32.957Z,99.99
2018-12-11T05:04:32.948Z,99.99
2018-12-11T05:05:32.929Z,99.99
2018-12-11T05:06:33.508Z,99.99
2018-12-11T05:07:32.904Z,99.99
2018-12-11T05:08:32.890Z,99.99
2018-12-11T05:09:33.129Z,99.99
2018-12-11T05:10:32.864Z,99.99
2018-12-11T05:11:32.651Z,99.99
2018-12-11T05:12:32.838Z,99.99
2018-12-11T05:13:32.825Z,99.99
2018-12-11T05:14:32.813Z,99.99
2018-12-11T05:15:32.800Z,99.99
2018-12-11T05:16:32.783Z,99.73
2018-12-11T05:17:32.771Z,99.44
2018-12-11T05:18:32.760Z,99.63
2018-12-11T05:19:32.748Z,99.35
2018-12-11T05:20:32.735Z,99.26
2018-12-11T05:21:32.720Z,99.26
2018-12-11T05:22:32.705Z,98.82
2018-12-11T05:23:32.694Z,98.92
2018-12-11T05:24:32.683Z,98.25
2018-12-11T05:25:32.669Z,97.88
2018-12-11T05:26:32.651Z,98.21
2018-12-11T05:27:32.637Z,97.97
2018-12-11T05:28:32.623Z,97.97
2018-12-11T05:29:32.611Z,97.64
2018-12-11T05:30:32.605Z,97.45
2018-12-11T05:31:32.584Z,97.74
2018-12-11T05:32:32.573Z,97.4
2018-12-11T05:33:32.562Z,97.02
2018-12-11T05:34:32.543Z,96.92
2018-12-11T05:35:32.532Z,97.55
2018-12-11T05:36:32.517Z,96.73
2018-12-11T05:37:32.504Z,96.64
2018-12-11T05:38:32.490Z,96.55
2018-12-11T05:39:32.498Z,96.92
2018-12-11T05:40:32.713Z,96.83
2018-12-11T05:41:32.449Z,96.64
2018-12-11T05:42:32.436Z,96.64
2018-12-11T05:43:32.423Z,96.73
2018-12-11T05:44:32.409Z,97.02
2018-12-11T05:45:32.397Z,96.73
2018-12-11T05:46:32.385Z,96.73
2018-12-11T05:47:32.368Z,96.64
2018-12-11T05:48:32.355Z,96.45
2018-12-11T05:49:32.342Z,96.64
2018-12-11T05:50:32.330Z,96.64
2018-12-11T05:51:32.314Z,96.36
2018-12-11T05:52:32.301Z,96.45
2018-12-11T05:53:32.284Z,96.17
2018-12-11T05:54:32.271Z,96.08
2018-12-11T05:55:32.258Z,95.98
2018-12-11T05:56:32.250Z,96.26
2018-12-11T05:57:32.235Z,96.12
2018-12-11T05:58:32.220Z,95.88
2018-12-11T05:59:32.206Z,96.17
2018-12-11T06:00:32.193Z,95.98
2018-12-11T06:01:32.180Z,96.08
2018-12-11T06:02:32.170Z,96.17
2018-12-11T06:03:32.162Z,96.08
2018-12-11T06:04:32.138Z,95.69
2018-12-11T06:05:32.125Z,95.98
2018-12-11T06:06:32.110Z,96.17
2018-12-11T06:07:32.102Z,95.88
2018-12-11T06:08:32.083Z,95.79
2018-12-11T06:09:32.070Z,96.36
2018-12-11T06:10:32.060Z,96.08
2018-12-11T06:11:32.042Z,95.98
2018-12-11T06:12:32.070Z,96.17
2018-12-11T06:13:32.015Z,95.88
2018-12-11T06:14:32.002Z,95.5
2018-12-11T06:15:31.987Z,96.26
2018-12-11T06:16:31.975Z,95.69
2018-12-11T06:17:31.965Z,96.17
2018-12-11T06:18:31.967Z,96.36
2018-12-11T06:19:31.933Z,95.88
2018-12-11T06:20:31.923Z,95.6
2018-12-11T06:21:31.906Z,96.17
2018-12-11T06:22:31.891Z,95.69
2018-12-11T06:23:31.881Z,95.69
2018-12-11T06:24:31.866Z,95.69
2018-12-11T06:25:31.857Z,95.41
2018-12-11T06:26:31.836Z,95.5
2018-12-11T06:27:31.835Z,95.31
2018-12-11T06:28:31.811Z,94.74
2018-12-11T06:29:31.799Z,94.46
2018-12-11T06:30:31.786Z,94.37
2018-12-11T06:31:31.772Z,94.27
2018-12-11T06:32:31.757Z,94.08
2018-12-11T06:33:31.747Z,94.27
2018-12-11T06:34:31.728Z,94.32
2018-12-11T06:35:31.715Z,93.75
2018-12-11T06:36:31.702Z,93.56
2018-12-11T06:37:31.690Z,93.56
2018-12-11T06:38:31.676Z,93.46
2018-12-11T06:39:31.660Z,93.56
2018-12-11T06:40:31.654Z,93.56
2018-12-11T06:41:31.639Z,93.27
2018-12-11T06:42:31.619Z,93.27
2018-12-11T06:43:31.604Z,93.27
2018-12-11T06:44:31.589Z,93.37
2018-12-11T06:45:31.576Z,93.27
2018-12-11T06:46:31.562Z,93.27
2018-12-11T06:47:31.553Z,92.9
2018-12-11T06:48:31.532Z,92.99
2018-12-11T06:49:31.520Z,92.8
2018-12-11T06:50:31.516Z,92.71
2018-12-11T06:51:31.494Z,92.61
2018-12-11T06:52:31.476Z,92.8
2018-12-11T06:53:31.712Z,92.8
2018-12-11T06:54:31.446Z,92.71
2018-12-11T06:55:31.432Z,92.9
2018-12-11T06:56:31.420Z,92.99
2018-12-11T06:57:31.411Z,92.14
2018-12-11T06:58:31.391Z,92.61
2018-12-11T06:59:31.377Z,92.23
2018-12-11T07:00:31.363Z,92.04
2018-12-11T07:01:31.349Z,92.14
2018-12-11T07:02:31.336Z,92.42
2018-12-11T07:03:31.320Z,92.42
2018-12-11T07:04:31.304Z,92.52
2018-12-11T07:05:31.293Z,92.23
2018-12-11T07:06:31.277Z,92.33
2018-12-11T07:07:31.261Z,92.42
2018-12-11T07:08:31.246Z,92.42
2018-12-11T07:09:31.237Z,92.23
2018-12-11T07:10:31.228Z,92.52
2018-12-11T07:11:31.205Z,92.23
2018-12-11T07:12:31.190Z,92.23
2018-12-11T07:13:31.176Z,92.52
2018-12-11T07:14:31.158Z,92.14
2018-12-11T07:15:31.147Z,92.8
2018-12-11T07:16:31.133Z,92.33
2018-12-11T07:17:31.118Z,92.23
2018-12-11T07:18:31.102Z,92.23
2018-12-11T07:19:31.089Z,92.33
2018-12-11T07:20:31.075Z,92.33
2018-12-11T07:21:31.063Z,92.42
2018-12-11T07:22:31.047Z,92.04
2018-12-11T07:23:31.034Z,91.85
2018-12-11T07:24:31.022Z,91.66
2018-12-11T07:25:31.004Z,91.66
2018-12-11T07:26:30.989Z,91.76
2018-12-11T07:27:30.975Z,91.95
2018-12-11T07:28:30.961Z,91.9
2018-12-11T07:29:30.946Z,91.99
2018-12-11T07:30:30.936Z,91.9
2018-12-11T07:31:30.922Z,91.99
2018-12-11T07:32:30.905Z,91.42
2018-12-11T07:33:30.895Z,91.33
2018-12-11T07:34:30.881Z,91.61
2018-12-11T07:35:30.862Z,91.8
2018-12-11T07:36:30.850Z,91.61
2018-12-11T07:37:30.834Z,91.71
2018-12-11T07:38:30.826Z,91.71
2018-12-11T07:39:30.807Z,91.61
2018-12-11T07:40:30.793Z,91.33
2018-12-11T07:41:30.779Z,91.71
2018-12-11T07:42:30.763Z,91.33
2018-12-11T07:43:30.750Z,91.33
2018-12-11T07:44:30.744Z,91.33
2018-12-11T07:45:30.724Z,91.24
2018-12-11T07:46:30.712Z,90.67
2018-12-11T07:47:30.699Z,90.67
2018-12-11T07:48:30.683Z,90.48
2018-12-11T07:49:30.676Z,90.95
2018-12-11T07:50:30.659Z,90.76
2018-12-11T07:51:30.639Z,90.57
2018-12-11T07:52:30.631Z,90.95
2018-12-11T07:53:30.613Z,90.95
2018-12-11T07:54:30.599Z,90.95
2018-12-11T07:55:30.585Z,91.14
2018-12-11T07:56:30.570Z,90.95
2018-12-11T07:57:30.559Z,90.76
2018-12-11T07:58:30.547Z,90.95
2018-12-11T07:59:30.532Z,90.76
2018-12-11T08:00:30.517Z,90.86
2018-12-11T08:01:30.501Z,90.95
2018-12-11T08:02:30.486Z,90.95
2018-12-11T08:03:30.481Z,90.86
2018-12-11T08:04:30.464Z,90.76
2018-12-11T08:05:30.449Z,90.95
2018-12-11T08:06:30.435Z,90.95
2018-12-11T08:07:30.419Z,90.76
2018-12-11T08:08:30.404Z,90.95
2018-12-11T08:09:30.392Z,90.67
2018-12-11T08:10:30.384Z,90.86
2018-12-11T08:11:30.365Z,91.14
2018-12-11T08:12:30.352Z,91.14
2018-12-11T08:13:30.339Z,90.48
2018-12-11T08:14:30.325Z,90.57
2018-12-11T08:15:30.311Z,90.57
2018-12-11T08:16:30.545Z,91.14
2018-12-11T08:17:30.282Z,90.48
2018-12-11T08:18:30.275Z,90.38
2018-12-11T08:19:30.257Z,90.38
2018-12-11T08:20:30.241Z,90.48
2018-12-11T08:21:30.232Z,90.48
2018-12-11T08:22:30.217Z,90.48
2018-12-11T08:23:30.200Z,90.38
2018-12-11T08:24:30.188Z,90.48
2018-12-11T08:25:30.173Z,90.48
2018-12-11T08:26:30.196Z,90.48
2018-12-11T08:27:30.147Z,90.48
2018-12-11T08:28:30.131Z,90.48
2018-12-11T08:29:30.123Z,90.48
2018-12-11T08:30:30.105Z,90.48
2018-12-11T08:31:30.096Z,90.67
2018-12-11T08:32:30.077Z,90.67
2018-12-11T08:33:30.064Z,90.67
2018-12-11T08:34:30.048Z,90.29
2018-12-11T08:35:30.036Z,90.29
2018-12-11T08:36:30.021Z,90.38
2018-12-11T08:37:30.011Z,90.38
2018-12-11T08:38:29.995Z,90.57
2018-12-11T08:39:29.993Z,90.48
2018-12-11T08:40:29.969Z,90.34
2018-12-11T08:41:29.954Z,90.24
2018-12-11T08:42:29.942Z,90.05
2018-12-11T08:43:29.933Z,90.38
2018-12-11T08:44:29.915Z,90.38
2018-12-11T08:45:29.902Z,90.29
2018-12-11T08:46:29.889Z,90.53
2018-12-11T08:47:29.873Z,89.86
2018-12-11T08:48:29.860Z,90.62
2018-12-11T08:49:29.848Z,90.57
2018-12-11T08:50:29.891Z,90.67
2018-12-11T08:51:29.820Z,90.05
2018-12-11T08:52:29.804Z,90.24
2018-12-11T08:53:29.795Z,90.43
2018-12-11T08:54:29.778Z,90.62
2018-12-11T08:55:29.765Z,90.67
2018-12-11T08:56:29.752Z,90.53
2018-12-11T08:57:29.738Z,90.24
2018-12-11T08:58:29.730Z,89.96
2018-12-11T08:59:29.714Z,89.86
2018-12-11T09:00:29.693Z,90.05
2018-12-11T09:01:29.685Z,90.1
2018-12-11T09:02:29.673Z,90
2018-12-11T09:03:29.665Z,90.1
2018-12-11T09:04:29.647Z,90
2018-12-11T09:05:29.635Z,90.1
2018-12-11T09:06:29.615Z,89.91
2018-12-11T09:07:29.600Z,90.1
2018-12-11T09:08:29.590Z,90.29
2018-12-11T09:09:29.575Z,90.1
2018-12-11T09:10:29.562Z,90.1
2018-12-11T09:11:29.551Z,90.29
2018-12-11T09:12:29.538Z,89.91
2018-12-11T09:13:29.523Z,90
2018-12-11T09:14:29.508Z,89.91
2018-12-11T09:15:29.497Z,90.1
2018-12-11T09:16:29.481Z,90.29
2018-12-11T09:17:29.471Z,89.91
2018-12-11T09:18:29.456Z,90
2018-12-11T09:19:29.445Z,90.19
2018-12-11T09:20:29.430Z,90
2018-12-11T09:21:29.479Z,90
2018-12-11T09:22:29.400Z,90
2018-12-11T09:23:29.393Z,89.53
2018-12-11T09:24:29.377Z,89.81
2018-12-11T09:25:29.362Z,89.53
2018-12-11T09:26:30.704Z,89.72
2018-12-11T09:27:29.339Z,89.53
2018-12-11T09:28:29.326Z,89.76
2018-12-11T09:29:29.311Z,89.91
2018-12-11T09:30:29.295Z,89.72
2018-12-11T09:31:29.284Z,89.76
2018-12-11T09:32:29.270Z,89.67
2018-12-11T09:33:29.257Z,89.86
2018-12-11T09:34:29.251Z,89.67
2018-12-11T09:35:29.233Z,89.86
2018-12-11T09:36:29.219Z,89.76
2018-12-11T09:37:29.209Z,90.14
2018-12-11T09:38:29.194Z,89.39
2018-12-11T09:39:29.181Z,89.76
2018-12-11T09:40:29.168Z,89.58
2018-12-11T09:41:29.161Z,89.29
2018-12-11T09:42:30.493Z,89.95
2018-12-11T09:43:29.126Z,89.95
2018-12-11T09:44:29.115Z,89.58
2018-12-11T09:45:29.103Z,89.95
2018-12-11T09:46:29.089Z,90.43
2018-12-11T09:47:29.079Z,90.24
2018-12-11T09:48:29.063Z,89.67
2018-12-11T09:49:29.942Z,91.19
2018-12-11T09:50:29.039Z,90.62
2018-12-11T09:51:29.028Z,89.95
2018-12-11T09:52:29.013Z,90.14
2018-12-11T09:53:29.005Z,90.24
2018-12-11T09:54:28.987Z,90
2018-12-11T09:55:28.971Z,89.62
2018-12-11T09:56:29.091Z,89.67
2018-12-11T09:57:28.947Z,89.58
2018-12-11T09:58:28.933Z,90.24
2018-12-11T09:59:28.923Z,90.05
2018-12-11T10:00:29.919Z,89.81
2018-12-11T10:01:28.915Z,89.95
2018-12-11T10:02:28.887Z,89.86
2018-12-11T10:03:28.904Z,89.86
2018-12-11T10:04:28.858Z,89.86
2018-12-11T10:05:28.842Z,89.86
2018-12-11T10:06:28.826Z,89.76
2018-12-11T10:07:28.815Z,89.58
2018-12-11T10:08:28.803Z,90
2018-12-11T10:09:28.791Z,89.95
2018-12-11T10:10:28.780Z,89.91
2018-12-11T10:11:28.769Z,89.91
2018-12-11T10:12:28.752Z,89.81
2018-12-11T10:13:28.736Z,89.72
2018-12-11T10:14:28.724Z,89.76
2018-12-11T10:15:28.709Z,89.67
2018-12-11T10:16:28.695Z,89.72
2018-12-11T10:17:28.685Z,89.67
2018-12-11T10:18:28.675Z,89.67
2018-12-11T10:19:28.658Z,89.53
2018-12-11T10:20:28.646Z,89.86
2018-12-11T10:21:28.633Z,89.76
2018-12-11T10:22:28.621Z,89.95
2018-12-11T10:23:34.329Z,89.48
2018-12-11T10:24:28.596Z,89.29
2018-12-11T10:25:28.579Z,89.2
2018-12-11T10:26:28.594Z,89.29
2018-12-11T10:27:28.554Z,89.39
2018-12-11T10:28:28.544Z,89.48
2018-12-11T10:29:28.533Z,89.39
2018-12-11T10:30:28.517Z,89.67
2018-12-11T10:31:28.506Z,89.2
2018-12-11T10:32:28.490Z,89.48
2018-12-11T10:33:28.479Z,89.86
2018-12-11T10:34:28.467Z,89.58
2018-12-11T10:35:28.449Z,89.48
2018-12-11T10:36:28.437Z,89.58
2018-12-11T10:37:28.429Z,89.67
2018-12-11T10:38:28.413Z,89.48
2018-12-11T10:39:28.155Z,89.58
2018-12-11T10:40:28.385Z,89.67
2018-12-11T10:41:28.375Z,89.86
2018-12-11T10:42:28.361Z,89.2
2018-12-11T10:43:28.347Z,89.86
2018-12-11T10:44:28.336Z,89.39
2018-12-11T10:45:28.323Z,89.39
2018-12-11T10:46:33.621Z,89
2018-12-11T10:47:28.294Z,89.86
2018-12-11T10:48:28.283Z,89.76
2018-12-11T10:49:28.272Z,89.67
2018-12-11T10:50:28.257Z,89.58
2018-12-11T10:51:28.249Z,89.58
2018-12-11T10:52:28.486Z,89.67
2018-12-11T10:53:28.216Z,89.58
2018-12-11T10:54:28.204Z,89.76
2018-12-11T10:55:28.196Z,89.48
2018-12-11T10:56:28.182Z,89.95
2018-12-11T10:57:28.166Z,89.48
2018-12-11T10:58:28.152Z,89.48
2018-12-11T10:59:28.144Z,89.48
2018-12-11T11:00:28.129Z,89.48
2018-12-11T11:01:28.125Z,89.48
2018-12-11T11:02:28.111Z,89.58
2018-12-11T11:03:28.096Z,89.39
2018-12-11T11:04:28.081Z,89.48
2018-12-11T11:05:28.065Z,89.67
2018-12-11T11:06:28.051Z,89.58
2018-12-11T11:07:28.038Z,89.86
2018-12-11T11:08:28.027Z,89.48
2018-12-11T11:09:28.014Z,89.39
2018-12-11T11:10:28.050Z,89.58
2018-12-11T11:11:27.997Z,90.14
2018-12-11T11:12:28.006Z,89.67
2018-12-11T11:13:27.967Z,89.95
2018-12-11T11:14:27.987Z,89.67
2018-12-11T11:15:27.990Z,89.58
2018-12-11T11:16:27.926Z,89.48
2018-12-11T11:17:27.919Z,89.39
2018-12-11T11:18:27.899Z,89.48
2018-12-11T11:19:27.885Z,89.67
2018-12-11T11:20:27.872Z,89.39
2018-12-11T11:21:27.861Z,89.76
2018-12-11T11:22:27.845Z,89
2018-12-11T11:23:28.083Z,89.58
2018-12-11T11:24:27.819Z,89.67
2018-12-11T11:25:27.810Z,89.48
2018-12-11T11:26:27.806Z,89.39
2018-12-11T11:27:27.780Z,89.48
2018-12-11T11:28:27.772Z,89.39
2018-12-11T11:29:27.755Z,89.48
2018-12-11T11:30:27.742Z,89.39
2018-12-11T11:31:27.736Z,89.86
2018-12-11T11:32:27.474Z,89.76
2018-12-11T11:33:27.706Z,90.05
2018-12-11T11:34:27.690Z,90.81
2018-12-11T11:35:27.679Z,91.56
2018-12-11T11:36:27.667Z,91.09
2018-12-11T11:37:27.653Z,90.71
2018-12-11T11:38:27.650Z,90.71
2018-12-11T11:39:27.437Z,91.28
2018-12-11T11:40:27.614Z,90.33
2018-12-11T11:41:27.612Z,90.71
2018-12-11T11:42:27.586Z,91
2018-12-11T11:43:27.583Z,90.24
2018-12-11T11:44:27.563Z,90.9
2018-12-11T11:45:27.549Z,91.09
2018-12-11T11:46:27.538Z,90.62
2018-12-11T11:47:27.523Z,91.42
2018-12-11T11:48:27.510Z,91.14
2018-12-11T11:49:27.499Z,91.61
2018-12-11T11:50:27.482Z,90.76
2018-12-11T11:51:27.470Z,91.24
2018-12-11T11:52:27.456Z,91.14
2018-12-11T11:53:27.449Z,91.24
2018-12-11T11:54:27.432Z,91.33
2018-12-11T11:55:27.417Z,91.24
2018-12-11T11:56:27.402Z,91.14
2018-12-11T11:57:32.128Z,91.14
2018-12-11T11:58:27.380Z,92.38
2018-12-11T11:59:27.365Z,92.09
2018-12-11T12:00:27.351Z,92.85
2018-12-11T12:01:27.339Z,91.85
2018-12-11T12:02:33.184Z,92.85
2018-12-11T12:03:27.311Z,91.76
2018-12-11T12:04:27.296Z,90.62
2018-12-11T12:05:27.284Z,91.76
2018-12-11T12:06:27.270Z,91.95
2018-12-11T12:07:27.256Z,91.95
2018-12-11T12:08:27.266Z,92.04
2018-12-11T12:09:27.230Z,90.91
2018-12-11T12:10:27.219Z,90.91
2018-12-11T12:11:27.207Z,90.72
2018-12-11T12:12:27.191Z,90.81
2018-12-11T12:13:27.174Z,91.09
2018-12-11T12:14:27.162Z,90.62
2018-12-11T12:15:27.149Z,90.34
2018-12-11T12:16:27.137Z,90.24
2018-12-11T12:17:27.121Z,90.05
2018-12-11T12:18:27.108Z,90.05
2018-12-11T12:19:27.095Z,90.15
2018-12-11T12:20:27.080Z,89.86
2018-12-11T12:21:27.067Z,90.05
2018-12-11T12:22:27.054Z,89.86
2018-12-11T12:23:27.040Z,90.15
2018-12-11T12:24:27.028Z,89.86
2018-12-11T12:25:27.023Z,90.29
2018-12-11T12:26:28.380Z,90.19
2018-12-11T12:27:26.990Z,90.1
2018-12-11T12:28:26.970Z,90.19
2018-12-11T12:29:26.956Z,90.19
2018-12-11T12:30:26.942Z,89.62
2018-12-11T12:31:26.928Z,89.91
2018-12-11T12:32:26.921Z,89.81
2018-12-11T12:33:26.902Z,89.43
2018-12-11T12:34:26.895Z,89.53
2018-12-11T12:35:26.874Z,89.34
2018-12-11T12:36:26.866Z,89.72
2018-12-11T12:37:26.847Z,89.72
2018-12-11T12:38:26.834Z,89.72
2018-12-11T12:39:26.822Z,89.81
2018-12-11T12:40:26.806Z,89.72
2018-12-11T12:41:26.796Z,89.62
2018-12-11T12:42:26.783Z,89.91
2018-12-11T12:43:26.766Z,89.62
2018-12-11T12:44:26.757Z,89.67
2018-12-11T12:45:26.740Z,89.72
2018-12-11T12:46:26.730Z,90.1
2018-12-11T12:47:26.714Z,89.67
2018-12-11T12:48:26.706Z,89.76
2018-12-11T12:49:26.687Z,89.53
2018-12-11T12:50:26.673Z,89.81
2018-12-11T12:51:26.659Z,90.1
2018-12-11T12:52:26.646Z,90
2018-12-11T12:53:26.634Z,89.91
2018-12-11T12:54:26.622Z,90.1
2018-12-11T12:55:26.608Z,90.57